Rock Rapids, IA

5:46 PM CDT on July 06, 2015 (GMT -0500)
Luverne | | Change Station
CLOSE
Current Station
Airport
Location: Luverne,
Elevation: 1430 ft
Nearby Weather Stations

Elev 1430 ft 43.62 °N, 96.21 °W | Updated 21 minutes ago

Overcast
Overcast
73 °F
Feels Like 73 °F
N
10
Wind Variable Wind from North
Gusts 21 mph

Today
High -- | Low -- °F
--% Chance of Precip.
Yesterday
High -- | Low -- °F
Precip. -- in
5:51 AM 9:08 PM
Waning Gibbous, 71% visible
Pressure 30.03 in
Visibility 5.0 miles
Clouds Scattered Clouds 3900 ft
Scattered Clouds 4700 ft
Dew Point 55 °F
Humidity 53%
Rainfall 0.00 in
Snow Depth Not available.
UV 4 out of 12
Pollen .60 out of 12
Air Quality Not available.
Flu Activity Not available.
METAR KLYV 062225Z AUTO 01009G18KT 5SM SCT039 SCT047 23/13 A3003 RMK AO2

More Conditions Fewer Conditions

Pressure 30.03 in
Visibility 5.0 miles
Clouds Scattered Clouds 3900 ft
Scattered Clouds 4700 ft
Dew Point 55 °F
Humidity 53%
Rainfall 0.00 in
Snow Depth Not available.
UV 4 out of 12
Pollen .60 out of 12
Air Quality Not available.
Flu Activity Not available.
METAR KLYV 062225Z AUTO 01009G18KT 5SM SCT039 SCT047 23/13 A3003 RMK AO2

More Conditions Fewer Conditions

10-Day Weather Forecast

×

Almanac

Astronomy

Jul. 06, 2015 Rise Set
Actual Time
Civil Twilight
Nautical Twilight
Astronomical Twilight
Moon
Length of Visible Light
Length of Day
Tomorrow will be .
, % of the Moon is Illuminated

Today's Extremes

State Highs State Lows

Community

WunderPhotos

Upload Photos

1,835,667 photos uploaded!

WunderBlogs® & News

Nearby

Air Quality

  Air Quality AQ Index Pollutant
Not available.

Snow Depth

Station Depth Elevation

Earthquake Activity

City Distance Mag. Time & Date
Minimum magnitude displayed is 2.5.

Coastal Water Temperatures

Place Temperature

Stations

Nearby Weather Stations

Station Location Temp. Windchill Dew Point Humidity Wind Precip. Elev Updated Type